sensor_id;sensor_type;location;lat;lon;timestamp;pressure;altitude;pressure_sealevel;temperature;humidity
57594;BME280;43423;46.510;6.686;2023-02-18T00:00:07;97748.34;;;8.80;66.35
57594;BME280;43423;46.510;6.686;2023-02-18T00:02:53;97744.81;;;8.80;65.90
57594;BME280;43423;46.510;6.686;2023-02-18T00:05:20;97746.59;;;8.86;65.73
57594;BME280;43423;46.510;6.686;2023-02-18T00:07:46;97749.56;;;8.92;64.98
57594;BME280;43423;46.510;6.686;2023-02-18T00:10:15;97750.91;;;9.00;65.27
57594;BME280;43423;46.510;6.686;2023-02-18T00:12:41;97759.00;;;8.91;65.26
57594;BME280;43423;46.510;6.686;2023-02-18T00:15:07;97754.91;;;8.83;65.32
57594;BME280;43423;46.510;6.686;2023-02-18T00:17:34;97756.25;;;8.91;64.64
57594;BME280;43423;46.510;6.686;2023-02-18T00:20:00;97754.19;;;8.95;64.70
57594;BME280;43423;46.510;6.686;2023-02-18T00:22:26;97750.44;;;8.89;64.77
57594;BME280;43423;46.510;6.686;2023-02-18T00:24:51;97755.59;;;8.87;64.34
57594;BME280;43423;46.510;6.686;2023-02-18T00:27:17;97752.19;;;8.83;64.20
57594;BME280;43423;46.510;6.686;2023-02-18T00:29:43;97755.81;;;8.80;64.46
57594;BME280;43423;46.510;6.686;2023-02-18T00:32:08;97753.59;;;8.75;64.66
57594;BME280;43423;46.510;6.686;2023-02-18T00:34:34;97759.63;;;8.70;64.63
57594;BME280;43423;46.510;6.686;2023-02-18T00:37:00;97756.63;;;8.64;64.27
57594;BME280;43423;46.510;6.686;2023-02-18T00:39:25;97750.13;;;8.58;65.49
57594;BME280;43423;46.510;6.686;2023-02-18T00:41:51;97748.53;;;8.44;65.58
57594;BME280;43423;46.510;6.686;2023-02-18T00:44:16;97749.75;;;8.27;67.06
57594;BME280;43423;46.510;6.686;2023-02-18T00:46:42;97747.56;;;8.38;66.68
57594;BME280;43423;46.510;6.686;2023-02-18T00:49:08;97748.13;;;8.29;66.32
57594;BME280;43423;46.510;6.686;2023-02-18T00:51:34;97742.44;;;8.07;67.19
57594;BME280;43423;46.510;6.686;2023-02-18T00:54:00;97747.66;;;8.02;67.75
57594;BME280;43423;46.510;6.686;2023-02-18T00:56:26;97748.69;;;8.08;67.37
57594;BME280;43423;46.510;6.686;2023-02-18T00:58:52;97744.91;;;8.02;68.06
57594;BME280;43423;46.510;6.686;2023-02-18T01:01:18;97740.06;;;7.93;68.51
57594;BME280;43423;46.510;6.686;2023-02-18T01:03:44;97751.66;;;7.97;69.10
57594;BME280;43423;46.510;6.686;2023-02-18T01:06:11;97746.72;;;8.08;68.74
57594;BME280;43423;46.510;6.686;2023-02-18T01:08:37;97744.81;;;8.22;67.21
57594;BME280;43423;46.510;6.686;2023-02-18T01:11:05;97747.34;;;8.29;67.04
57594;BME280;43423;46.510;6.686;2023-02-18T01:13:31;97748.41;;;8.35;66.79
57594;BME280;43423;46.510;6.686;2023-02-18T01:15:56;97745.13;;;8.40;66.04
57594;BME280;43423;46.510;6.686;2023-02-18T01:18:24;97744.44;;;8.36;67.68
57594;BME280;43423;46.510;6.686;2023-02-18T01:20:49;97737.75;;;8.37;67.04
57594;BME280;43423;46.510;6.686;2023-02-18T01:23:15;97736.22;;;8.36;66.13
57594;BME280;43423;46.510;6.686;2023-02-18T01:25:40;97738.44;;;8.41;66.49
57594;BME280;43423;46.510;6.686;2023-02-18T01:28:07;97744.25;;;8.43;66.27
57594;BME280;43423;46.510;6.686;2023-02-18T01:30:33;97734.50;;;8.42;66.92
57594;BME280;43423;46.510;6.686;2023-02-18T01:33:00;97733.63;;;8.45;68.33
57594;BME280;43423;46.510;6.686;2023-02-18T01:35:25;97732.09;;;8.44;69.04
57594;BME280;43423;46.510;6.686;2023-02-18T01:37:51;97731.13;;;8.51;67.83
57594;BME280;43423;46.510;6.686;2023-02-18T01:40:20;97731.13;;;8.51;67.95
57594;BME280;43423;46.510;6.686;2023-02-18T01:42:47;97728.44;;;8.18;70.21
57594;BME280;43423;46.510;6.686;2023-02-18T01:48:03;97726.00;;;8.07;70.30
57594;BME280;43423;46.510;6.686;2023-02-18T01:50:30;97731.97;;;8.19;69.55
57594;BME280;43423;46.510;6.686;2023-02-18T01:52:59;97723.38;;;8.33;68.09
57594;BME280;43423;46.510;6.686;2023-02-18T01:55:25;97724.75;;;8.41;68.52
57594;BME280;43423;46.510;6.686;2023-02-18T01:57:52;97723.34;;;8.49;67.27
57594;BME280;43423;46.510;6.686;2023-02-18T02:00:18;97715.81;;;8.53;66.78
57594;BME280;43423;46.510;6.686;2023-02-18T02:02:50;97715.25;;;8.58;66.61
57594;BME280;43423;46.510;6.686;2023-02-18T02:05:17;97723.47;;;8.58;66.17
57594;BME280;43423;46.510;6.686;2023-02-18T02:07:45;97722.97;;;8.63;65.84
57594;BME280;43423;46.510;6.686;2023-02-18T02:10:12;97719.66;;;8.68;66.11
57594;BME280;43423;46.510;6.686;2023-02-18T02:24:17;97726.03;;;8.65;66.90
57594;BME280;43423;46.510;6.686;2023-02-18T02:26:59;97712.84;;;8.60;65.74
57594;BME280;43423;46.510;6.686;2023-02-18T02:32:25;97707.72;;;8.62;66.18
57594;BME280;43423;46.510;6.686;2023-02-18T02:35:04;97701.03;;;8.63;67.21
57594;BME280;43423;46.510;6.686;2023-02-18T02:37:41;97706.19;;;8.61;65.42
57594;BME280;43423;46.510;6.686;2023-02-18T02:43:15;97704.78;;;8.70;63.90
57594;BME280;43423;46.510;6.686;2023-02-18T02:45:54;97701.59;;;8.71;64.28
57594;BME280;43423;46.510;6.686;2023-02-18T02:48:46;97684.81;;;8.69;62.74
57594;BME280;43423;46.510;6.686;2023-02-18T02:51:26;97682.59;;;8.77;62.48
57594;BME280;43423;46.510;6.686;2023-02-18T02:53:54;97679.53;;;8.75;62.18
57594;BME280;43423;46.510;6.686;2023-02-18T02:56:22;97680.44;;;8.72;62.67
57594;BME280;43423;46.510;6.686;2023-02-18T02:58:57;97680.50;;;8.68;62.60
57594;BME280;43423;46.510;6.686;2023-02-18T03:04:37;97682.75;;;8.44;63.99
57594;BME280;43423;46.510;6.686;2023-02-18T03:12:24;97680.03;;;8.28;64.39
57594;BME280;43423;46.510;6.686;2023-02-18T03:18:03;97680.25;;;7.92;64.98
57594;BME280;43423;46.510;6.686;2023-02-18T03:20:34;97681.16;;;8.01;64.77
57594;BME280;43423;46.510;6.686;2023-02-18T03:23:03;97688.69;;;7.97;64.85
57594;BME280;43423;46.510;6.686;2023-02-18T03:25:32;97681.59;;;8.00;65.16
57594;BME280;43423;46.510;6.686;2023-02-18T03:28:07;97677.00;;;7.64;66.68
57594;BME280;43423;46.510;6.686;2023-02-18T03:30:41;97673.50;;;7.64;67.26
57594;BME280;43423;46.510;6.686;2023-02-18T03:33:10;97678.16;;;7.50;67.86
57594;BME280;43423;46.510;6.686;2023-02-18T03:35:38;97677.94;;;7.57;67.60
57594;BME280;43423;46.510;6.686;2023-02-18T03:38:17;97678.03;;;7.21;69.10
57594;BME280;43423;46.510;6.686;2023-02-18T03:40:45;97675.16;;;7.45;68.23
57594;BME280;43423;46.510;6.686;2023-02-18T03:43:11;97675.72;;;7.69;67.03
57594;BME280;43423;46.510;6.686;2023-02-18T03:45:36;97676.94;;;7.68;66.57
57594;BME280;43423;46.510;6.686;2023-02-18T03:48:02;97685.91;;;7.68;67.10
57594;BME280;43423;46.510;6.686;2023-02-18T03:50:28;97681.66;;;7.51;68.42
57594;BME280;43423;46.510;6.686;2023-02-18T03:52:54;97685.81;;;7.55;67.95
57594;BME280;43423;46.510;6.686;2023-02-18T03:55:19;97682.13;;;7.78;66.51
57594;BME280;43423;46.510;6.686;2023-02-18T03:57:45;97683.41;;;7.90;65.79
57594;BME280;43423;46.510;6.686;2023-02-18T04:00:10;97689.66;;;7.91;67.15
57594;BME280;43423;46.510;6.686;2023-02-18T04:02:36;97685.75;;;8.04;65.90
57594;BME280;43423;46.510;6.686;2023-02-18T04:05:02;97686.78;;;8.10;65.06
57594;BME280;43423;46.510;6.686;2023-02-18T04:07:28;97676.34;;;8.05;65.44
57594;BME280;43423;46.510;6.686;2023-02-18T04:09:53;97680.19;;;8.08;66.42
57594;BME280;43423;46.510;6.686;2023-02-18T04:12:19;97677.69;;;7.68;68.50
57594;BME280;43423;46.510;6.686;2023-02-18T04:14:44;97672.22;;;7.68;68.49
57594;BME280;43423;46.510;6.686;2023-02-18T04:17:10;97689.25;;;7.76;68.09
57594;BME280;43423;46.510;6.686;2023-02-18T04:19:35;97676.84;;;7.71;68.15
57594;BME280;43423;46.510;6.686;2023-02-18T04:22:01;97687.03;;;7.38;69.02
57594;BME280;43423;46.510;6.686;2023-02-18T04:24:27;97679.31;;;7.33;69.16
57594;BME280;43423;46.510;6.686;2023-02-18T04:26:52;97686.00;;;7.48;67.03
57594;BME280;43423;46.510;6.686;2023-02-18T04:29:18;97677.88;;;7.61;67.84
57594;BME280;43423;46.510;6.686;2023-02-18T04:31:43;97691.28;;;7.55;68.14
57594;BME280;43423;46.510;6.686;2023-02-18T04:34:09;97692.91;;;7.69;67.15
57594;BME280;43423;46.510;6.686;2023-02-18T04:36:35;97688.66;;;7.68;67.36
57594;BME280;43423;46.510;6.686;2023-02-18T04:39:00;97690.78;;;7.61;68.26
57594;BME280;43423;46.510;6.686;2023-02-18T04:41:26;97682.91;;;7.79;67.16
57594;BME280;43423;46.510;6.686;2023-02-18T04:43:51;97685.81;;;7.23;69.33
57594;BME280;43423;46.510;6.686;2023-02-18T04:46:17;97684.44;;;7.15;69.65
57594;BME280;43423;46.510;6.686;2023-02-18T04:48:43;97690.94;;;7.21;69.81
57594;BME280;43423;46.510;6.686;2023-02-18T04:51:08;97688.81;;;7.12;70.19
57594;BME280;43423;46.510;6.686;2023-02-18T04:53:34;97691.22;;;6.90;70.62
57594;BME280;43423;46.510;6.686;2023-02-18T04:55:59;97692.09;;;6.87;70.67
57594;BME280;43423;46.510;6.686;2023-02-18T04:58:25;97688.16;;;6.88;70.17
57594;BME280;43423;46.510;6.686;2023-02-18T05:00:51;97697.94;;;7.06;70.01
57594;BME280;43423;46.510;6.686;2023-02-18T05:03:18;97695.03;;;7.13;69.61
57594;BME280;43423;46.510;6.686;2023-02-18T05:05:44;97703.91;;;7.17;69.17
57594;BME280;43423;46.510;6.686;2023-02-18T05:08:10;97690.94;;;7.05;69.16
57594;BME280;43423;46.510;6.686;2023-02-18T05:10:37;97692.53;;;7.02;69.74
57594;BME280;43423;46.510;6.686;2023-02-18T05:13:03;97690.22;;;7.00;69.59
57594;BME280;43423;46.510;6.686;2023-02-18T05:15:29;97688.28;;;7.17;68.36
57594;BME280;43423;46.510;6.686;2023-02-18T05:17:54;97685.75;;;6.90;69.07
57594;BME280;43423;46.510;6.686;2023-02-18T05:20:20;97683.38;;;6.56;70.38
57594;BME280;43423;46.510;6.686;2023-02-18T05:22:45;97680.75;;;6.69;70.16
57594;BME280;43423;46.510;6.686;2023-02-18T05:25:11;97690.47;;;6.70;70.50
57594;BME280;43423;46.510;6.686;2023-02-18T05:27:36;97687.44;;;6.84;69.97
57594;BME280;43423;46.510;6.686;2023-02-18T05:30:03;97685.28;;;6.76;70.31
57594;BME280;43423;46.510;6.686;2023-02-18T05:32:28;97683.28;;;6.60;71.36
57594;BME280;43423;46.510;6.686;2023-02-18T05:34:54;97686.44;;;6.58;72.89
57594;BME280;43423;46.510;6.686;2023-02-18T05:37:19;97688.78;;;6.76;71.46
57594;BME280;43423;46.510;6.686;2023-02-18T05:39:45;97690.91;;;6.88;71.02
57594;BME280;43423;46.510;6.686;2023-02-18T05:42:10;97694.53;;;6.82;71.51
57594;BME280;43423;46.510;6.686;2023-02-18T05:44:36;97683.59;;;6.82;72.11
57594;BME280;43423;46.510;6.686;2023-02-18T05:47:07;97691.22;;;6.90;71.50
57594;BME280;43423;46.510;6.686;2023-02-18T05:49:34;97688.31;;;6.81;72.03
57594;BME280;43423;46.510;6.686;2023-02-18T05:52:00;97697.34;;;6.78;72.03
57594;BME280;43423;46.510;6.686;2023-02-18T05:54:26;97691.19;;;6.74;72.43
57594;BME280;43423;46.510;6.686;2023-02-18T05:56:52;97687.94;;;6.79;71.45
57594;BME280;43423;46.510;6.686;2023-02-18T05:59:19;97691.38;;;6.83;70.84
57594;BME280;43423;46.510;6.686;2023-02-18T06:01:45;97693.00;;;6.81;70.02
57594;BME280;43423;46.510;6.686;2023-02-18T06:04:11;97684.72;;;6.84;69.70
57594;BME280;43423;46.510;6.686;2023-02-18T06:06:37;97683.78;;;6.91;68.76
57594;BME280;43423;46.510;6.686;2023-02-18T06:09:03;97678.06;;;6.85;68.73
57594;BME280;43423;46.510;6.686;2023-02-18T06:11:28;97678.09;;;6.46;69.50
57594;BME280;43423;46.510;6.686;2023-02-18T06:13:54;97676.41;;;6.52;69.21
57594;BME280;43423;46.510;6.686;2023-02-18T06:16:19;97689.50;;;6.60;68.47
57594;BME280;43423;46.510;6.686;2023-02-18T06:18:45;97689.47;;;6.64;68.21
57594;BME280;43423;46.510;6.686;2023-02-18T06:21:10;97692.19;;;6.64;68.08
57594;BME280;43423;46.510;6.686;2023-02-18T06:23:36;97690.00;;;6.75;67.03
57594;BME280;43423;46.510;6.686;2023-02-18T06:26:01;97683.59;;;6.82;66.69
57594;BME280;43423;46.510;6.686;2023-02-18T06:28:27;97692.91;;;6.84;66.44
57594;BME280;43423;46.510;6.686;2023-02-18T06:30:52;97693.97;;;6.90;66.10
57594;BME280;43423;46.510;6.686;2023-02-18T06:33:18;97684.47;;;6.95;65.68
57594;BME280;43423;46.510;6.686;2023-02-18T06:35:55;97681.69;;;6.98;65.33
57594;BME280;43423;46.510;6.686;2023-02-18T06:38:21;97679.38;;;6.97;65.70
57594;BME280;43423;46.510;6.686;2023-02-18T06:40:47;97679.09;;;6.91;65.71
57594;BME280;43423;46.510;6.686;2023-02-18T06:43:13;97674.50;;;6.88;65.78
57594;BME280;43423;46.510;6.686;2023-02-18T06:45:38;97685.81;;;6.87;65.52
57594;BME280;43423;46.510;6.686;2023-02-18T06:48:04;97684.00;;;6.64;66.53
57594;BME280;43423;46.510;6.686;2023-02-18T06:50:30;97684.03;;;6.80;65.87
57594;BME280;43423;46.510;6.686;2023-02-18T06:52:55;97702.06;;;6.94;65.55
57594;BME280;43423;46.510;6.686;2023-02-18T06:55:21;97704.22;;;7.03;65.40
57594;BME280;43423;46.510;6.686;2023-02-18T06:57:47;97698.00;;;7.02;65.81
57594;BME280;43423;46.510;6.686;2023-02-18T07:00:13;97699.47;;;7.07;66.31
57594;BME280;43423;46.510;6.686;2023-02-18T07:02:39;97698.59;;;7.10;65.89
57594;BME280;43423;46.510;6.686;2023-02-18T07:05:04;97698.97;;;7.12;65.63
57594;BME280;43423;46.510;6.686;2023-02-18T07:07:30;97700.16;;;7.11;65.67
57594;BME280;43423;46.510;6.686;2023-02-18T07:09:56;97699.38;;;7.10;66.27
57594;BME280;43423;46.510;6.686;2023-02-18T07:12:22;97690.00;;;7.11;65.85
57594;BME280;43423;46.510;6.686;2023-02-18T07:14:47;97701.56;;;7.19;65.57
57594;BME280;43423;46.510;6.686;2023-02-18T07:17:14;97692.56;;;7.18;65.58
57594;BME280;43423;46.510;6.686;2023-02-18T07:19:40;97695.41;;;7.31;65.24
57594;BME280;43423;46.510;6.686;2023-02-18T07:22:05;97689.44;;;7.36;65.25
57594;BME280;43423;46.510;6.686;2023-02-18T07:24:31;97703.09;;;7.36;64.17
57594;BME280;43423;46.510;6.686;2023-02-18T07:26:57;97701.91;;;7.53;64.43
57594;BME280;43423;46.510;6.686;2023-02-18T07:29:22;97691.06;;;7.66;63.96
57594;BME280;43423;46.510;6.686;2023-02-18T07:31:48;97695.16;;;7.74;64.80
57594;BME280;43423;46.510;6.686;2023-02-18T07:34:13;97698.22;;;7.60;65.48
57594;BME280;43423;46.510;6.686;2023-02-18T07:36:39;97694.63;;;7.79;63.77
57594;BME280;43423;46.510;6.686;2023-02-18T07:39:04;97697.44;;;7.92;63.24
57594;BME280;43423;46.510;6.686;2023-02-18T07:41:30;97691.97;;;7.92;63.43
57594;BME280;43423;46.510;6.686;2023-02-18T07:43:55;97696.34;;;8.19;63.28
57594;BME280;43423;46.510;6.686;2023-02-18T07:46:21;97696.41;;;8.31;62.79
57594;BME280;43423;46.510;6.686;2023-02-18T07:48:47;97704.78;;;8.41;62.54
57594;BME280;43423;46.510;6.686;2023-02-18T07:51:12;97693.72;;;8.44;62.61
57594;BME280;43423;46.510;6.686;2023-02-18T07:53:38;97696.50;;;8.57;62.05
57594;BME280;43423;46.510;6.686;2023-02-18T07:56:05;97698.41;;;8.73;62.34
57594;BME280;43423;46.510;6.686;2023-02-18T07:58:35;97688.34;;;8.95;61.92
57594;BME280;43423;46.510;6.686;2023-02-18T08:01:06;97696.94;;;9.10;60.90
57594;BME280;43423;46.510;6.686;2023-02-18T08:03:32;97700.66;;;9.16;60.86
57594;BME280;43423;46.510;6.686;2023-02-18T08:05:59;97700.44;;;9.36;60.65
57594;BME280;43423;46.510;6.686;2023-02-18T08:08:27;97701.22;;;9.36;61.29
57594;BME280;43423;46.510;6.686;2023-02-18T08:10:54;97707.81;;;9.26;62.56
57594;BME280;43423;46.510;6.686;2023-02-18T08:13:20;97699.56;;;9.39;61.65
57594;BME280;43423;46.510;6.686;2023-02-18T08:15:46;97698.44;;;9.62;62.07
57594;BME280;43423;46.510;6.686;2023-02-18T08:18:20;97691.19;;;9.68;61.20
57594;BME280;43423;46.510;6.686;2023-02-18T08:20:47;97692.75;;;9.56;62.03
57594;BME280;43423;46.510;6.686;2023-02-18T08:23:14;97697.53;;;9.77;61.56
57594;BME280;43423;46.510;6.686;2023-02-18T08:25:50;97690.19;;;9.62;62.72
57594;BME280;43423;46.510;6.686;2023-02-18T08:28:17;97682.19;;;9.67;64.12
57594;BME280;43423;46.510;6.686;2023-02-18T08:30:49;97687.34;;;9.65;62.87
57594;BME280;43423;46.510;6.686;2023-02-18T08:33:16;97694.16;;;9.61;61.08
57594;BME280;43423;46.510;6.686;2023-02-18T08:35:43;97697.88;;;9.67;59.43
57594;BME280;43423;46.510;6.686;2023-02-18T08:38:08;97697.56;;;9.52;60.21
57594;BME280;43423;46.510;6.686;2023-02-18T08:40:34;97702.63;;;9.66;60.26
57594;BME280;43423;46.510;6.686;2023-02-18T08:42:59;97698.09;;;9.72;61.49
57594;BME280;43423;46.510;6.686;2023-02-18T08:45:25;97712.78;;;9.78;58.68
57594;BME280;43423;46.510;6.686;2023-02-18T08:47:51;97705.69;;;9.68;59.18
57594;BME280;43423;46.510;6.686;2023-02-18T08:50:16;97702.03;;;9.71;60.40
57594;BME280;43423;46.510;6.686;2023-02-18T08:52:42;97700.19;;;9.68;60.13
57594;BME280;43423;46.510;6.686;2023-02-18T08:55:08;97710.63;;;10.08;59.79
57594;BME280;43423;46.510;6.686;2023-02-18T08:57:34;97707.78;;;10.12;59.84
57594;BME280;43423;46.510;6.686;2023-02-18T08:59:59;97705.47;;;10.10;59.57
57594;BME280;43423;46.510;6.686;2023-02-18T09:02:25;97717.75;;;10.31;60.58
57594;BME280;43423;46.510;6.686;2023-02-18T09:04:53;97704.81;;;10.41;60.39
57594;BME280;43423;46.510;6.686;2023-02-18T09:07:18;97710.97;;;10.45;60.48
57594;BME280;43423;46.510;6.686;2023-02-18T09:09:44;97710.97;;;10.45;60.89
57594;BME280;43423;46.510;6.686;2023-02-18T09:12:10;97710.50;;;10.24;60.71
57594;BME280;43423;46.510;6.686;2023-02-18T09:14:35;97703.03;;;10.25;60.57
57594;BME280;43423;46.510;6.686;2023-02-18T09:17:01;97704.31;;;10.33;61.22
57594;BME280;43423;46.510;6.686;2023-02-18T09:19:27;97706.75;;;10.31;59.42
57594;BME280;43423;46.510;6.686;2023-02-18T09:21:52;97704.72;;;10.44;60.45
57594;BME280;43423;46.510;6.686;2023-02-18T09:24:19;97714.22;;;10.30;59.61
57594;BME280;43423;46.510;6.686;2023-02-18T09:26:45;97717.22;;;10.23;60.01
57594;BME280;43423;46.510;6.686;2023-02-18T09:29:11;97715.56;;;10.48;59.33
57594;BME280;43423;46.510;6.686;2023-02-18T09:31:36;97706.69;;;10.44;58.18
57594;BME280;43423;46.510;6.686;2023-02-18T09:34:04;97713.78;;;10.54;57.58
57594;BME280;43423;46.510;6.686;2023-02-18T09:36:29;97711.47;;;10.74;57.97
57594;BME280;43423;46.510;6.686;2023-02-18T09:38:55;97709.03;;;10.98;56.94
57594;BME280;43423;46.510;6.686;2023-02-18T09:41:44;97703.13;;;11.09;56.17
57594;BME280;43423;46.510;6.686;2023-02-18T09:44:37;97707.06;;;10.99;56.56
57594;BME280;43423;46.510;6.686;2023-02-18T09:47:15;97710.81;;;11.14;58.09
57594;BME280;43423;46.510;6.686;2023-02-18T09:49:54;97716.56;;;11.07;58.16
57594;BME280;43423;46.510;6.686;2023-02-18T09:52:33;97712.06;;;10.69;58.36
57594;BME280;43423;46.510;6.686;2023-02-18T09:55:06;97713.16;;;10.72;58.46
57594;BME280;43423;46.510;6.686;2023-02-18T09:57:40;97709.09;;;11.07;57.97
57594;BME280;43423;46.510;6.686;2023-02-18T10:02:58;97705.84;;;11.40;56.83
57594;BME280;43423;46.510;6.686;2023-02-18T10:05:28;97705.59;;;11.56;56.53
57594;BME280;43423;46.510;6.686;2023-02-18T10:08:01;97700.97;;;11.44;56.24
57594;BME280;43423;46.510;6.686;2023-02-18T10:10:39;97703.34;;;11.64;55.95
57594;BME280;43423;46.510;6.686;2023-02-18T10:13:12;97703.34;;;11.64;56.45
57594;BME280;43423;46.510;6.686;2023-02-18T10:15:40;97702.44;;;11.76;55.98
57594;BME280;43423;46.510;6.686;2023-02-18T10:20:52;97707.03;;;11.70;54.54
57594;BME280;43423;46.510;6.686;2023-02-18T10:23:22;97704.53;;;11.54;55.11
57594;BME280;43423;46.510;6.686;2023-02-18T10:25:49;97699.06;;;11.72;56.00
57594;BME280;43423;46.510;6.686;2023-02-18T10:28:18;97701.28;;;11.86;55.04
57594;BME280;43423;46.510;6.686;2023-02-18T10:30:50;97697.75;;;11.86;55.50
57594;BME280;43423;46.510;6.686;2023-02-18T10:36:20;97695.81;;;12.41;55.76
57594;BME280;43423;46.510;6.686;2023-02-18T10:41:51;97706.69;;;12.26;54.91
57594;BME280;43423;46.510;6.686;2023-02-18T10:47:34;97700.53;;;12.04;54.80
57594;BME280;43423;46.510;6.686;2023-02-18T10:50:25;97705.41;;;11.91;55.68
57594;BME280;43423;46.510;6.686;2023-02-18T10:52:55;97704.06;;;12.23;54.55
57594;BME280;43423;46.510;6.686;2023-02-18T10:55:35;97704.97;;;12.38;53.78
57594;BME280;43423;46.510;6.686;2023-02-18T10:58:01;97700.22;;;12.48;53.35
57594;BME280;43423;46.510;6.686;2023-02-18T11:00:34;97693.94;;;12.56;53.08
57594;BME280;43423;46.510;6.686;2023-02-18T11:03:37;97690.84;;;12.82;52.86
57594;BME280;43423;46.510;6.686;2023-02-18T11:06:04;97685.00;;;12.71;52.31
57594;BME280;43423;46.510;6.686;2023-02-18T11:08:39;97694.47;;;12.97;52.61
57594;BME280;43423;46.510;6.686;2023-02-18T11:11:15;97690.38;;;12.83;51.32
57594;BME280;43423;46.510;6.686;2023-02-18T11:13:42;97692.06;;;12.81;52.09
57594;BME280;43423;46.510;6.686;2023-02-18T11:16:09;97698.16;;;13.03;51.65
57594;BME280;43423;46.510;6.686;2023-02-18T11:18:38;97696.41;;;13.24;51.05
57594;BME280;43423;46.510;6.686;2023-02-18T11:23:53;97705.25;;;13.37;50.56
57594;BME280;43423;46.510;6.686;2023-02-18T11:26:32;97699.75;;;13.37;50.90
57594;BME280;43423;46.510;6.686;2023-02-18T11:29:14;97689.69;;;13.49;50.40
57594;BME280;43423;46.510;6.686;2023-02-18T11:31:44;97688.50;;;13.41;51.55
57594;BME280;43423;46.510;6.686;2023-02-18T11:34:30;97681.69;;;13.60;52.11
57594;BME280;43423;46.510;6.686;2023-02-18T11:37:11;97677.44;;;13.74;51.15
57594;BME280;43423;46.510;6.686;2023-02-18T11:39:42;97672.28;;;13.91;50.73
57594;BME280;43423;46.510;6.686;2023-02-18T11:42:12;97679.34;;;13.92;50.89
57594;BME280;43423;46.510;6.686;2023-02-18T11:44:58;97666.28;;;13.92;51.70
57594;BME280;43423;46.510;6.686;2023-02-18T11:47:32;97672.81;;;14.19;50.70
57594;BME280;43423;46.510;6.686;2023-02-18T11:50:14;97669.59;;;14.20;50.32
57594;BME280;43423;46.510;6.686;2023-02-18T11:52:41;97662.41;;;14.14;50.35
57594;BME280;43423;46.510;6.686;2023-02-18T11:55:15;97656.78;;;14.08;50.29
57594;BME280;43423;46.510;6.686;2023-02-18T11:57:45;97648.41;;;14.17;50.59
57594;BME280;43423;46.510;6.686;2023-02-18T12:00:18;97650.41;;;14.17;48.32
57594;BME280;43423;46.510;6.686;2023-02-18T12:02:44;97648.56;;;14.14;48.85
57594;BME280;43423;46.510;6.686;2023-02-18T12:05:18;97644.63;;;13.91;49.26
57594;BME280;43423;46.510;6.686;2023-02-18T12:10:42;97640.63;;;14.31;49.11
57594;BME280;43423;46.510;6.686;2023-02-18T12:13:26;97645.16;;;14.19;49.00
57594;BME280;43423;46.510;6.686;2023-02-18T12:22:21;97628.28;;;14.56;48.99
57594;BME280;43423;46.510;6.686;2023-02-18T12:32:44;97606.88;;;14.86;49.08
57594;BME280;43423;46.510;6.686;2023-02-18T12:38:32;97598.06;;;15.02;48.84
57594;BME280;43423;46.510;6.686;2023-02-18T12:41:01;97597.72;;;14.79;48.66
57594;BME280;43423;46.510;6.686;2023-02-18T12:43:42;97591.94;;;14.98;49.09
57594;BME280;43423;46.510;6.686;2023-02-18T12:46:33;97581.00;;;15.24;48.90
57594;BME280;43423;46.510;6.686;2023-02-18T12:49:16;97577.53;;;15.29;48.68
57594;BME280;43423;46.510;6.686;2023-02-18T12:54:35;97570.13;;;15.20;50.57
57594;BME280;43423;46.510;6.686;2023-02-18T13:02:42;97557.53;;;16.01;53.45
57594;BME280;43423;46.510;6.686;2023-02-18T13:11:18;97546.50;;;16.64;49.59
57594;BME280;43423;46.510;6.686;2023-02-18T13:16:26;97534.25;;;16.44;48.99
57594;BME280;43423;46.510;6.686;2023-02-18T13:21:45;97526.56;;;16.65;48.33
57594;BME280;43423;46.510;6.686;2023-02-18T13:24:20;97529.47;;;16.45;48.40
57594;BME280;43423;46.510;6.686;2023-02-18T13:26:49;97516.28;;;16.40;48.28
57594;BME280;43423;46.510;6.686;2023-02-18T13:40:25;97504.16;;;16.11;45.99
57594;BME280;43423;46.510;6.686;2023-02-18T13:43:19;97498.13;;;16.13;46.59
57594;BME280;43423;46.510;6.686;2023-02-18T13:46:07;97497.97;;;16.22;47.78
57594;BME280;43423;46.510;6.686;2023-02-18T13:48:39;97493.59;;;16.73;46.76
57594;BME280;43423;46.510;6.686;2023-02-18T13:51:06;97482.44;;;16.67;45.56
57594;BME280;43423;46.510;6.686;2023-02-18T13:53:37;97480.06;;;16.55;46.64
57594;BME280;43423;46.510;6.686;2023-02-18T13:56:07;97468.63;;;16.79;47.08
57594;BME280;43423;46.510;6.686;2023-02-18T13:58:41;97468.97;;;16.97;45.60
57594;BME280;43423;46.510;6.686;2023-02-18T14:08:38;97458.25;;;16.73;44.12
57594;BME280;43423;46.510;6.686;2023-02-18T14:13:48;97460.59;;;16.86;45.69
57594;BME280;43423;46.510;6.686;2023-02-18T14:16:17;97448.78;;;16.91;45.69
57594;BME280;43423;46.510;6.686;2023-02-18T14:23:43;97451.31;;;17.54;45.32
57594;BME280;43423;46.510;6.686;2023-02-18T14:26:17;97449.03;;;17.58;46.26
57594;BME280;43423;46.510;6.686;2023-02-18T14:42:08;97429.78;;;16.84;47.12
57594;BME280;43423;46.510;6.686;2023-02-18T14:47:34;97417.50;;;16.22;48.42
57594;BME280;43423;46.510;6.686;2023-02-18T14:50:16;97419.25;;;16.19;48.97
57594;BME280;43423;46.510;6.686;2023-02-18T14:55:21;97417.97;;;15.89;49.61
57594;BME280;43423;46.510;6.686;2023-02-18T14:58:04;97411.03;;;15.73;48.35
57594;BME280;43423;46.510;6.686;2023-02-18T15:00:39;97410.44;;;15.43;48.46
57594;BME280;43423;46.510;6.686;2023-02-18T15:03:17;97402.97;;;15.29;49.40
57594;BME280;43423;46.510;6.686;2023-02-18T15:05:45;97399.34;;;15.17;48.68
57594;BME280;43423;46.510;6.686;2023-02-18T15:08:20;97399.88;;;15.21;49.80
57594;BME280;43423;46.510;6.686;2023-02-18T15:10:57;97395.00;;;15.36;50.79
57594;BME280;43423;46.510;6.686;2023-02-18T15:13:26;97386.09;;;15.27;51.50
57594;BME280;43423;46.510;6.686;2023-02-18T15:15:55;97384.94;;;15.13;52.58
57594;BME280;43423;46.510;6.686;2023-02-18T15:18:29;97389.22;;;15.14;51.69
57594;BME280;43423;46.510;6.686;2023-02-18T15:21:03;97383.56;;;15.03;51.27
57594;BME280;43423;46.510;6.686;2023-02-18T15:23:29;97383.22;;;14.95;51.59
57594;BME280;43423;46.510;6.686;2023-02-18T15:25:56;97371.53;;;14.86;52.20
57594;BME280;43423;46.510;6.686;2023-02-18T15:28:27;97376.91;;;14.74;52.80
57594;BME280;43423;46.510;6.686;2023-02-18T15:30:58;97367.50;;;14.66;52.71